sensor_id;sensor_type;location;lat;lon;timestamp;P1;durP1;ratioP1;P2;durP2;ratioP2
76725;SDS011;65651;53.154;17.916;2023-02-28T00:01:28;28.50;;;10.00;;
76725;SDS011;65651;53.154;17.916;2023-02-28T00:03:55;28.30;;;9.60;;
76725;SDS011;65651;53.154;17.916;2023-02-28T00:06:23;25.50;;;8.20;;
76725;SDS011;65651;53.154;17.916;2023-02-28T00:08:51;23.10;;;8.90;;
76725;SDS011;65651;53.154;17.916;2023-02-28T00:11:18;26.20;;;8.60;;
76725;SDS011;65651;53.154;17.916;2023-02-28T00:13:46;41.00;;;12.00;;
76725;SDS011;65651;53.154;17.916;2023-02-28T00:16:16;65.10;;;19.40;;
76725;SDS011;65651;53.154;17.916;2023-02-28T00:18:45;56.40;;;17.30;;
76725;SDS011;65651;53.154;17.916;2023-02-28T00:21:17;43.20;;;15.10;;
76725;SDS011;65651;53.154;17.916;2023-02-28T00:23:46;40.10;;;13.90;;
76725;SDS011;65651;53.154;17.916;2023-02-28T00:26:13;37.10;;;12.60;;
76725;SDS011;65651;53.154;17.916;2023-02-28T00:28:41;28.80;;;10.30;;
76725;SDS011;65651;53.154;17.916;2023-02-28T00:31:09;26.90;;;11.20;;
76725;SDS011;65651;53.154;17.916;2023-02-28T00:33:36;21.80;;;8.70;;
76725;SDS011;65651;53.154;17.916;2023-02-28T00:36:04;27.00;;;9.90;;
76725;SDS011;65651;53.154;17.916;2023-02-28T00:38:36;26.40;;;9.30;;
76725;SDS011;65651;53.154;17.916;2023-02-28T00:41:05;31.70;;;12.10;;
76725;SDS011;65651;53.154;17.916;2023-02-28T00:43:34;34.10;;;11.20;;
76725;SDS011;65651;53.154;17.916;2023-02-28T00:46:04;39.30;;;13.10;;
76725;SDS011;65651;53.154;17.916;2023-02-28T00:48:32;68.40;;;19.90;;
76725;SDS011;65651;53.154;17.916;2023-02-28T00:50:59;129.60;;;35.30;;
76725;SDS011;65651;53.154;17.916;2023-02-28T00:53:30;113.10;;;32.70;;
76725;SDS011;65651;53.154;17.916;2023-02-28T00:55:59;106.50;;;31.00;;
76725;SDS011;65651;53.154;17.916;2023-02-28T00:58:27;85.90;;;27.00;;
76725;SDS011;65651;53.154;17.916;2023-02-28T01:00:54;68.20;;;23.60;;
76725;SDS011;65651;53.154;17.916;2023-02-28T01:03:22;44.60;;;16.60;;
76725;SDS011;65651;53.154;17.916;2023-02-28T01:05:50;35.70;;;12.70;;
76725;SDS011;65651;53.154;17.916;2023-02-28T01:08:19;32.40;;;12.30;;
76725;SDS011;65651;53.154;17.916;2023-02-28T01:10:47;30.10;;;11.70;;
76725;SDS011;65651;53.154;17.916;2023-02-28T01:13:16;47.00;;;17.90;;
76725;SDS011;65651;53.154;17.916;2023-02-28T01:15:45;79.90;;;26.10;;
76725;SDS011;65651;53.154;17.916;2023-02-28T01:18:18;83.80;;;26.60;;
76725;SDS011;65651;53.154;17.916;2023-02-28T01:20:47;139.30;;;39.30;;
76725;SDS011;65651;53.154;17.916;2023-02-28T01:23:17;100.50;;;32.20;;
76725;SDS011;65651;53.154;17.916;2023-02-28T01:25:45;89.90;;;30.20;;
76725;SDS011;65651;53.154;17.916;2023-02-28T01:28:15;108.10;;;30.70;;
76725;SDS011;65651;53.154;17.916;2023-02-28T01:30:47;109.30;;;32.70;;
76725;SDS011;65651;53.154;17.916;2023-02-28T01:33:15;94.80;;;31.20;;
76725;SDS011;65651;53.154;17.916;2023-02-28T01:35:45;103.70;;;34.00;;
76725;SDS011;65651;53.154;17.916;2023-02-28T01:38:12;114.90;;;37.60;;
76725;SDS011;65651;53.154;17.916;2023-02-28T01:40:41;109.60;;;36.30;;
76725;SDS011;65651;53.154;17.916;2023-02-28T01:43:12;86.60;;;31.00;;
76725;SDS011;65651;53.154;17.916;2023-02-28T01:45:56;96.10;;;30.70;;
76725;SDS011;65651;53.154;17.916;2023-02-28T01:48:32;85.40;;;28.60;;
76725;SDS011;65651;53.154;17.916;2023-02-28T01:51:08;93.40;;;34.30;;
76725;SDS011;65651;53.154;17.916;2023-02-28T01:53:46;74.30;;;25.70;;
76725;SDS011;65651;53.154;17.916;2023-02-28T01:56:20;71.20;;;23.70;;
76725;SDS011;65651;53.154;17.916;2023-02-28T01:58:54;66.10;;;21.70;;
76725;SDS011;65651;53.154;17.916;2023-02-28T02:01:23;53.90;;;18.50;;
76725;SDS011;65651;53.154;17.916;2023-02-28T02:03:55;61.50;;;21.60;;
76725;SDS011;65651;53.154;17.916;2023-02-28T02:06:29;63.50;;;19.20;;
76725;SDS011;65651;53.154;17.916;2023-02-28T02:09:01;72.70;;;20.40;;
76725;SDS011;65651;53.154;17.916;2023-02-28T02:11:30;77.00;;;26.70;;
76725;SDS011;65651;53.154;17.916;2023-02-28T02:14:17;104.00;;;30.60;;
76725;SDS011;65651;53.154;17.916;2023-02-28T02:17:14;93.10;;;29.00;;
76725;SDS011;65651;53.154;17.916;2023-02-28T02:25:56;83.70;;;27.20;;
76725;SDS011;65651;53.154;17.916;2023-02-28T02:34:26;69.70;;;23.40;;
76725;SDS011;65651;53.154;17.916;2023-02-28T02:37:13;76.70;;;24.20;;
76725;SDS011;65651;53.154;17.916;2023-02-28T02:40:00;79.30;;;28.00;;
76725;SDS011;65651;53.154;17.916;2023-02-28T02:42:36;41.10;;;14.80;;
76725;SDS011;65651;53.154;17.916;2023-02-28T02:45:12;50.10;;;17.10;;
76725;SDS011;65651;53.154;17.916;2023-02-28T02:47:46;53.60;;;16.10;;
76725;SDS011;65651;53.154;17.916;2023-02-28T02:50:17;76.30;;;26.60;;
76725;SDS011;65651;53.154;17.916;2023-02-28T02:52:52;74.60;;;24.30;;
76725;SDS011;65651;53.154;17.916;2023-02-28T02:55:23;71.40;;;26.50;;
76725;SDS011;65651;53.154;17.916;2023-02-28T02:58:02;80.40;;;25.20;;
76725;SDS011;65651;53.154;17.916;2023-02-28T03:00:37;83.50;;;29.70;;
76725;SDS011;65651;53.154;17.916;2023-02-28T03:03:10;87.40;;;31.40;;
76725;SDS011;65651;53.154;17.916;2023-02-28T03:05:41;83.50;;;31.30;;
76725;SDS011;65651;53.154;17.916;2023-02-28T03:08:13;86.60;;;28.80;;
76725;SDS011;65651;53.154;17.916;2023-02-28T03:10:43;89.90;;;29.90;;
76725;SDS011;65651;53.154;17.916;2023-02-28T03:30:06;57.80;;;19.60;;
76725;SDS011;65651;53.154;17.916;2023-02-28T03:32:41;46.80;;;12.80;;
76725;SDS011;65651;53.154;17.916;2023-02-28T03:35:22;76.20;;;27.70;;
76725;SDS011;65651;53.154;17.916;2023-02-28T03:37:53;87.60;;;28.60;;
76725;SDS011;65651;53.154;17.916;2023-02-28T03:40:28;92.60;;;31.20;;
76725;SDS011;65651;53.154;17.916;2023-02-28T03:43:00;98.20;;;33.60;;
76725;SDS011;65651;53.154;17.916;2023-02-28T03:45:32;105.60;;;34.50;;
76725;SDS011;65651;53.154;17.916;2023-02-28T03:48:09;117.80;;;37.30;;
76725;SDS011;65651;53.154;17.916;2023-02-28T03:50:49;103.20;;;34.20;;
76725;SDS011;65651;53.154;17.916;2023-02-28T03:56:11;78.80;;;26.20;;
76725;SDS011;65651;53.154;17.916;2023-02-28T03:59:06;59.90;;;19.30;;
76725;SDS011;65651;53.154;17.916;2023-02-28T04:01:43;53.80;;;19.40;;
76725;SDS011;65651;53.154;17.916;2023-02-28T04:04:13;49.90;;;15.50;;
76725;SDS011;65651;53.154;17.916;2023-02-28T04:06:42;39.50;;;14.20;;
76725;SDS011;65651;53.154;17.916;2023-02-28T04:09:11;49.30;;;17.20;;
76725;SDS011;65651;53.154;17.916;2023-02-28T04:11:44;62.20;;;21.30;;
76725;SDS011;65651;53.154;17.916;2023-02-28T04:14:15;54.50;;;20.10;;
76725;SDS011;65651;53.154;17.916;2023-02-28T04:16:42;47.00;;;17.10;;
76725;SDS011;65651;53.154;17.916;2023-02-28T04:19:11;52.10;;;18.20;;
76725;SDS011;65651;53.154;17.916;2023-02-28T04:21:40;51.50;;;18.80;;
76725;SDS011;65651;53.154;17.916;2023-02-28T04:24:11;51.10;;;16.80;;
76725;SDS011;65651;53.154;17.916;2023-02-28T04:26:42;43.10;;;13.10;;
76725;SDS011;65651;53.154;17.916;2023-02-28T04:29:12;47.50;;;14.70;;
76725;SDS011;65651;53.154;17.916;2023-02-28T04:31:41;37.90;;;13.60;;
76725;SDS011;65651;53.154;17.916;2023-02-28T04:34:08;30.90;;;12.60;;
76725;SDS011;65651;53.154;17.916;2023-02-28T04:36:36;38.00;;;13.10;;
76725;SDS011;65651;53.154;17.916;2023-02-28T04:39:03;45.20;;;16.00;;
76725;SDS011;65651;53.154;17.916;2023-02-28T04:41:31;58.10;;;19.70;;
76725;SDS011;65651;53.154;17.916;2023-02-28T04:43:58;43.30;;;15.80;;
76725;SDS011;65651;53.154;17.916;2023-02-28T04:46:26;50.10;;;17.00;;
76725;SDS011;65651;53.154;17.916;2023-02-28T04:48:53;41.30;;;17.00;;
76725;SDS011;65651;53.154;17.916;2023-02-28T04:51:21;46.40;;;16.30;;
76725;SDS011;65651;53.154;17.916;2023-02-28T04:53:49;41.10;;;14.00;;
76725;SDS011;65651;53.154;17.916;2023-02-28T04:56:17;38.30;;;12.20;;
76725;SDS011;65651;53.154;17.916;2023-02-28T04:58:45;39.10;;;11.90;;
76725;SDS011;65651;53.154;17.916;2023-02-28T05:01:30;33.90;;;10.20;;
76725;SDS011;65651;53.154;17.916;2023-02-28T05:04:00;34.10;;;10.40;;
76725;SDS011;65651;53.154;17.916;2023-02-28T05:06:30;32.20;;;11.30;;
76725;SDS011;65651;53.154;17.916;2023-02-28T05:08:59;26.50;;;10.00;;
76725;SDS011;65651;53.154;17.916;2023-02-28T05:11:29;25.70;;;9.00;;
76725;SDS011;65651;53.154;17.916;2023-02-28T05:14:02;22.50;;;7.90;;
76725;SDS011;65651;53.154;17.916;2023-02-28T05:16:31;31.10;;;10.30;;
76725;SDS011;65651;53.154;17.916;2023-02-28T05:18:58;46.60;;;14.90;;
76725;SDS011;65651;53.154;17.916;2023-02-28T05:21:38;46.70;;;15.80;;
76725;SDS011;65651;53.154;17.916;2023-02-28T05:24:11;56.10;;;17.10;;
76725;SDS011;65651;53.154;17.916;2023-02-28T05:26:42;53.70;;;17.20;;
76725;SDS011;65651;53.154;17.916;2023-02-28T05:29:10;37.30;;;13.80;;
76725;SDS011;65651;53.154;17.916;2023-02-28T05:31:37;39.30;;;14.40;;
76725;SDS011;65651;53.154;17.916;2023-02-28T05:34:05;47.30;;;14.80;;
76725;SDS011;65651;53.154;17.916;2023-02-28T05:36:33;39.50;;;13.20;;
76725;SDS011;65651;53.154;17.916;2023-02-28T05:39:00;36.20;;;12.70;;
76725;SDS011;65651;53.154;17.916;2023-02-28T05:41:28;45.20;;;14.40;;
76725;SDS011;65651;53.154;17.916;2023-02-28T05:43:56;38.60;;;13.20;;
76725;SDS011;65651;53.154;17.916;2023-02-28T05:46:24;38.20;;;11.80;;
76725;SDS011;65651;53.154;17.916;2023-02-28T05:48:51;36.30;;;12.60;;
76725;SDS011;65651;53.154;17.916;2023-02-28T05:51:19;39.50;;;12.30;;
76725;SDS011;65651;53.154;17.916;2023-02-28T05:53:49;55.90;;;19.30;;
76725;SDS011;65651;53.154;17.916;2023-02-28T05:56:17;73.50;;;26.70;;
76725;SDS011;65651;53.154;17.916;2023-02-28T05:58:44;79.20;;;28.10;;
76725;SDS011;65651;53.154;17.916;2023-02-28T06:01:46;92.30;;;29.70;;
76725;SDS011;65651;53.154;17.916;2023-02-28T06:04:09;85.40;;;28.60;;
76725;SDS011;65651;53.154;17.916;2023-02-28T06:06:37;96.30;;;33.70;;
76725;SDS011;65651;53.154;17.916;2023-02-28T06:09:07;103.10;;;34.20;;
76725;SDS011;65651;53.154;17.916;2023-02-28T06:11:35;91.60;;;34.10;;
76725;SDS011;65651;53.154;17.916;2023-02-28T06:14:03;93.90;;;35.30;;
76725;SDS011;65651;53.154;17.916;2023-02-28T06:16:32;88.60;;;31.70;;
76725;SDS011;65651;53.154;17.916;2023-02-28T06:19:02;110.70;;;39.90;;
76725;SDS011;65651;53.154;17.916;2023-02-28T06:21:32;92.40;;;31.00;;
76725;SDS011;65651;53.154;17.916;2023-02-28T06:23:59;80.40;;;31.30;;
76725;SDS011;65651;53.154;17.916;2023-02-28T06:26:27;90.60;;;34.00;;
76725;SDS011;65651;53.154;17.916;2023-02-28T06:28:54;67.60;;;27.60;;
76725;SDS011;65651;53.154;17.916;2023-02-28T06:31:24;96.50;;;36.80;;
76725;SDS011;65651;53.154;17.916;2023-02-28T06:33:52;113.60;;;41.40;;
76725;SDS011;65651;53.154;17.916;2023-02-28T06:36:20;120.40;;;41.90;;
76725;SDS011;65651;53.154;17.916;2023-02-28T06:38:47;113.80;;;44.30;;
76725;SDS011;65651;53.154;17.916;2023-02-28T06:41:18;122.10;;;45.50;;
76725;SDS011;65651;53.154;17.916;2023-02-28T06:43:45;112.90;;;41.50;;
76725;SDS011;65651;53.154;17.916;2023-02-28T06:46:13;121.00;;;45.90;;
76725;SDS011;65651;53.154;17.916;2023-02-28T06:48:42;119.70;;;42.90;;
76725;SDS011;65651;53.154;17.916;2023-02-28T06:51:13;107.60;;;42.00;;
76725;SDS011;65651;53.154;17.916;2023-02-28T06:53:47;89.40;;;35.00;;
76725;SDS011;65651;53.154;17.916;2023-02-28T06:56:15;94.20;;;38.80;;
76725;SDS011;65651;53.154;17.916;2023-02-28T06:58:47;102.20;;;38.80;;
76725;SDS011;65651;53.154;17.916;2023-02-28T07:01:16;93.10;;;34.90;;
76725;SDS011;65651;53.154;17.916;2023-02-28T07:03:45;104.30;;;38.80;;
76725;SDS011;65651;53.154;17.916;2023-02-28T07:06:13;109.20;;;41.10;;
76725;SDS011;65651;53.154;17.916;2023-02-28T07:08:40;112.20;;;41.70;;
76725;SDS011;65651;53.154;17.916;2023-02-28T07:11:08;103.70;;;41.60;;
76725;SDS011;65651;53.154;17.916;2023-02-28T07:13:35;100.70;;;40.10;;
76725;SDS011;65651;53.154;17.916;2023-02-28T07:16:04;113.60;;;45.70;;
76725;SDS011;65651;53.154;17.916;2023-02-28T07:18:37;106.60;;;47.20;;
76725;SDS011;65651;53.154;17.916;2023-02-28T07:21:05;104.20;;;47.60;;
76725;SDS011;65651;53.154;17.916;2023-02-28T07:23:35;117.40;;;54.70;;
76725;SDS011;65651;53.154;17.916;2023-02-28T07:26:05;111.70;;;54.90;;
76725;SDS011;65651;53.154;17.916;2023-02-28T07:28:33;104.50;;;52.80;;
76725;SDS011;65651;53.154;17.916;2023-02-28T07:31:04;97.70;;;47.20;;
76725;SDS011;65651;53.154;17.916;2023-02-28T07:33:35;123.30;;;53.40;;
76725;SDS011;65651;53.154;17.916;2023-02-28T07:36:04;111.80;;;50.80;;
76725;SDS011;65651;53.154;17.916;2023-02-28T07:38:36;185.60;;;85.00;;
76725;SDS011;65651;53.154;17.916;2023-02-28T07:41:04;260.30;;;115.90;;
76725;SDS011;65651;53.154;17.916;2023-02-28T07:43:32;209.50;;;97.10;;
76725;SDS011;65651;53.154;17.916;2023-02-28T07:46:07;168.30;;;73.70;;
76725;SDS011;65651;53.154;17.916;2023-02-28T07:48:36;136.90;;;61.90;;
76725;SDS011;65651;53.154;17.916;2023-02-28T07:51:04;103.80;;;47.50;;
76725;SDS011;65651;53.154;17.916;2023-02-28T07:53:32;134.40;;;58.80;;
76725;SDS011;65651;53.154;17.916;2023-02-28T07:56:00;165.00;;;62.90;;
76725;SDS011;65651;53.154;17.916;2023-02-28T07:58:29;172.20;;;63.90;;
76725;SDS011;65651;53.154;17.916;2023-02-28T08:00:57;109.40;;;42.50;;
76725;SDS011;65651;53.154;17.916;2023-02-28T08:03:38;55.30;;;24.90;;
76725;SDS011;65651;53.154;17.916;2023-02-28T08:06:07;59.00;;;25.90;;
76725;SDS011;65651;53.154;17.916;2023-02-28T08:08:41;52.50;;;24.50;;
76725;SDS011;65651;53.154;17.916;2023-02-28T08:11:09;51.90;;;23.40;;
76725;SDS011;65651;53.154;17.916;2023-02-28T08:13:36;58.30;;;27.00;;
76725;SDS011;65651;53.154;17.916;2023-02-28T08:16:04;44.40;;;20.00;;
76725;SDS011;65651;53.154;17.916;2023-02-28T08:18:32;33.30;;;15.70;;
76725;SDS011;65651;53.154;17.916;2023-02-28T08:21:05;25.00;;;11.30;;
76725;SDS011;65651;53.154;17.916;2023-02-28T08:23:35;26.50;;;11.60;;
76725;SDS011;65651;53.154;17.916;2023-02-28T08:26:03;17.60;;;9.30;;
76725;SDS011;65651;53.154;17.916;2023-02-28T08:28:30;20.40;;;11.10;;
76725;SDS011;65651;53.154;17.916;2023-02-28T08:30:59;20.80;;;9.10;;
76725;SDS011;65651;53.154;17.916;2023-02-28T08:33:27;19.50;;;10.00;;
76725;SDS011;65651;53.154;17.916;2023-02-28T08:35:55;17.40;;;9.30;;
76725;SDS011;65651;53.154;17.916;2023-02-28T08:38:23;19.30;;;9.60;;
76725;SDS011;65651;53.154;17.916;2023-02-28T08:40:56;19.90;;;8.90;;
76725;SDS011;65651;53.154;17.916;2023-02-28T08:43:26;19.50;;;8.20;;
76725;SDS011;65651;53.154;17.916;2023-02-28T08:45:54;20.00;;;8.40;;
76725;SDS011;65651;53.154;17.916;2023-02-28T08:48:24;10.70;;;6.10;;
76725;SDS011;65651;53.154;17.916;2023-02-28T08:50:58;12.70;;;5.60;;
76725;SDS011;65651;53.154;17.916;2023-02-28T08:53:31;11.90;;;5.30;;
76725;SDS011;65651;53.154;17.916;2023-02-28T08:56:00;12.20;;;6.00;;
76725;SDS011;65651;53.154;17.916;2023-02-28T08:58:30;10.50;;;4.50;;
76725;SDS011;65651;53.154;17.916;2023-02-28T09:01:00;9.70;;;5.10;;
76725;SDS011;65651;53.154;17.916;2023-02-28T09:03:33;12.00;;;3.50;;
76725;SDS011;65651;53.154;17.916;2023-02-28T09:06:01;11.80;;;4.30;;
76725;SDS011;65651;53.154;17.916;2023-02-28T09:08:29;12.90;;;4.20;;
76725;SDS011;65651;53.154;17.916;2023-02-28T09:10:57;8.40;;;3.90;;
76725;SDS011;65651;53.154;17.916;2023-02-28T09:13:26;7.70;;;3.10;;
76725;SDS011;65651;53.154;17.916;2023-02-28T09:15:54;7.30;;;3.30;;
76725;SDS011;65651;53.154;17.916;2023-02-28T09:18:24;8.30;;;3.10;;
76725;SDS011;65651;53.154;17.916;2023-02-28T09:20:53;5.40;;;2.80;;
76725;SDS011;65651;53.154;17.916;2023-02-28T09:23:21;9.10;;;3.40;;
76725;SDS011;65651;53.154;17.916;2023-02-28T09:25:50;6.30;;;3.30;;
76725;SDS011;65651;53.154;17.916;2023-02-28T09:28:19;7.50;;;3.30;;
76725;SDS011;65651;53.154;17.916;2023-02-28T09:30:49;8.00;;;3.30;;
76725;SDS011;65651;53.154;17.916;2023-02-28T09:33:18;11.10;;;3.80;;
76725;SDS011;65651;53.154;17.916;2023-02-28T09:35:50;3.50;;;1.70;;
76725;SDS011;65651;53.154;17.916;2023-02-28T09:38:19;6.10;;;2.90;;
76725;SDS011;65651;53.154;17.916;2023-02-28T09:40:51;10.50;;;4.00;;
76725;SDS011;65651;53.154;17.916;2023-02-28T09:43:21;18.80;;;5.10;;
76725;SDS011;65651;53.154;17.916;2023-02-28T09:45:54;10.80;;;3.70;;
76725;SDS011;65651;53.154;17.916;2023-02-28T09:48:43;5.50;;;2.90;;
76725;SDS011;65651;53.154;17.916;2023-02-28T09:54:20;6.30;;;2.60;;
76725;SDS011;65651;53.154;17.916;2023-02-28T09:56:50;5.20;;;2.70;;
76725;SDS011;65651;53.154;17.916;2023-02-28T10:03:00;6.30;;;2.10;;
76725;SDS011;65651;53.154;17.916;2023-02-28T10:05:43;7.50;;;2.20;;
76725;SDS011;65651;53.154;17.916;2023-02-28T10:08:30;8.00;;;2.70;;
76725;SDS011;65651;53.154;17.916;2023-02-28T10:11:09;6.70;;;2.40;;
76725;SDS011;65651;53.154;17.916;2023-02-28T10:13:48;13.40;;;4.60;;
76725;SDS011;65651;53.154;17.916;2023-02-28T10:19:08;19.20;;;5.80;;
76725;SDS011;65651;53.154;17.916;2023-02-28T10:21:56;7.40;;;3.10;;
76725;SDS011;65651;53.154;17.916;2023-02-28T10:24:33;4.10;;;2.10;;
76725;SDS011;65651;53.154;17.916;2023-02-28T10:27:19;16.60;;;3.50;;
76725;SDS011;65651;53.154;17.916;2023-02-28T10:29:52;6.60;;;3.10;;
76725;SDS011;65651;53.154;17.916;2023-02-28T10:32:26;7.30;;;3.10;;
76725;SDS011;65651;53.154;17.916;2023-02-28T10:37:47;8.00;;;2.60;;
76725;SDS011;65651;53.154;17.916;2023-02-28T10:42:57;9.30;;;3.80;;
76725;SDS011;65651;53.154;17.916;2023-02-28T10:45:28;9.30;;;2.80;;
76725;SDS011;65651;53.154;17.916;2023-02-28T10:48:04;8.90;;;3.10;;
76725;SDS011;65651;53.154;17.916;2023-02-28T11:03:58;6.90;;;2.70;;
76725;SDS011;65651;53.154;17.916;2023-02-28T11:06:26;7.40;;;2.60;;
76725;SDS011;65651;53.154;17.916;2023-02-28T11:08:58;6.80;;;2.40;;
76725;SDS011;65651;53.154;17.916;2023-02-28T11:11:53;4.70;;;1.50;;
76725;SDS011;65651;53.154;17.916;2023-02-28T11:14:22;4.40;;;2.10;;
76725;SDS011;65651;53.154;17.916;2023-02-28T11:16:53;7.20;;;2.50;;
76725;SDS011;65651;53.154;17.916;2023-02-28T11:19:38;5.10;;;2.10;;
76725;SDS011;65651;53.154;17.916;2023-02-28T11:22:11;4.20;;;2.10;;
76725;SDS011;65651;53.154;17.916;2023-02-28T11:24:47;9.80;;;2.20;;
76725;SDS011;65651;53.154;17.916;2023-02-28T11:27:40;7.90;;;2.30;;
76725;SDS011;65651;53.154;17.916;2023-02-28T11:30:23;3.80;;;1.80;;
76725;SDS011;65651;53.154;17.916;2023-02-28T11:32:51;5.80;;;2.00;;
76725;SDS011;65651;53.154;17.916;2023-02-28T11:37:56;4.90;;;2.50;;
76725;SDS011;65651;53.154;17.916;2023-02-28T11:40:30;6.20;;;2.60;;
76725;SDS011;65651;53.154;17.916;2023-02-28T11:51:34;10.30;;;3.10;;
76725;SDS011;65651;53.154;17.916;2023-02-28T11:56:44;7.20;;;2.30;;
76725;SDS011;65651;53.154;17.916;2023-02-28T12:05:05;7.60;;;2.10;;
76725;SDS011;65651;53.154;17.916;2023-02-28T12:13:18;32.60;;;7.00;;
76725;SDS011;65651;53.154;17.916;2023-02-28T12:15:57;23.70;;;6.10;;
76725;SDS011;65651;53.154;17.916;2023-02-28T12:27:02;7.20;;;2.50;;
76725;SDS011;65651;53.154;17.916;2023-02-28T12:32:02;5.90;;;2.50;;
76725;SDS011;65651;53.154;17.916;2023-02-28T12:34:39;6.90;;;2.80;;
76725;SDS011;65651;53.154;17.916;2023-02-28T12:37:25;9.40;;;3.00;;
76725;SDS011;65651;53.154;17.916;2023-02-28T12:40:03;7.50;;;3.20;;
76725;SDS011;65651;53.154;17.916;2023-02-28T12:42:42;8.20;;;2.60;;
76725;SDS011;65651;53.154;17.916;2023-02-28T12:45:19;11.60;;;4.30;;
76725;SDS011;65651;53.154;17.916;2023-02-28T12:47:52;6.90;;;2.80;;
76725;SDS011;65651;53.154;17.916;2023-02-28T12:50:27;5.90;;;2.20;;
76725;SDS011;65651;53.154;17.916;2023-02-28T12:58:30;10.80;;;2.30;;
76725;SDS011;65651;53.154;17.916;2023-02-28T13:09:24;14.70;;;4.60;;
76725;SDS011;65651;53.154;17.916;2023-02-28T13:11:53;13.30;;;4.40;;
76725;SDS011;65651;53.154;17.916;2023-02-28T13:22:37;6.40;;;3.00;;
76725;SDS011;65651;53.154;17.916;2023-02-28T13:25:49;9.60;;;3.80;;
76725;SDS011;65651;53.154;17.916;2023-02-28T13:28:01;15.20;;;4.10;;
76725;SDS011;65651;53.154;17.916;2023-02-28T13:33:26;13.40;;;4.20;;
76725;SDS011;65651;53.154;17.916;2023-02-28T13:38:54;8.90;;;3.80;;
76725;SDS011;65651;53.154;17.916;2023-02-28T13:44:08;11.10;;;4.60;;
76725;SDS011;65651;53.154;17.916;2023-02-28T13:49:32;10.00;;;4.20;;
76725;SDS011;65651;53.154;17.916;2023-02-28T14:05:38;5.60;;;3.80;;
76725;SDS011;65651;53.154;17.916;2023-02-28T14:08:17;7.80;;;4.00;;
76725;SDS011;65651;53.154;17.916;2023-02-28T14:10:50;7.40;;;4.00;;
76725;SDS011;65651;53.154;17.916;2023-02-28T14:14:04;13.00;;;5.40;;
76725;SDS011;65651;53.154;17.916;2023-02-28T14:16:25;11.70;;;4.90;;
76725;SDS011;65651;53.154;17.916;2023-02-28T14:19:04;6.10;;;3.50;;
76725;SDS011;65651;53.154;17.916;2023-02-28T14:21:50;13.20;;;6.20;;
76725;SDS011;65651;53.154;17.916;2023-02-28T14:24:25;17.20;;;5.30;;
76725;SDS011;65651;53.154;17.916;2023-02-28T14:35:39;10.50;;;4.20;;
76725;SDS011;65651;53.154;17.916;2023-02-28T14:38:16;8.90;;;6.30;;
76725;SDS011;65651;53.154;17.916;2023-02-28T14:40:48;7.80;;;3.40;;
76725;SDS011;65651;53.154;17.916;2023-02-28T14:43:21;8.20;;;4.00;;
76725;SDS011;65651;53.154;17.916;2023-02-28T14:45:51;12.80;;;7.90;;
76725;SDS011;65651;53.154;17.916;2023-02-28T14:48:22;15.70;;;8.00;;
76725;SDS011;65651;53.154;17.916;2023-02-28T14:50:52;8.60;;;4.80;;
76725;SDS011;65651;53.154;17.916;2023-02-28T14:53:22;13.60;;;6.90;;
76725;SDS011;65651;53.154;17.916;2023-02-28T14:55:53;13.90;;;7.80;;
76725;SDS011;65651;53.154;17.916;2023-02-28T14:58:27;14.40;;;6.10;;
76725;SDS011;65651;53.154;17.916;2023-02-28T15:00:58;14.10;;;7.50;;
76725;SDS011;65651;53.154;17.916;2023-02-28T15:03:37;11.80;;;5.50;;
76725;SDS011;65651;53.154;17.916;2023-02-28T15:06:15;8.20;;;4.20;;
76725;SDS011;65651;53.154;17.916;2023-02-28T15:08:45;11.80;;;7.00;;
76725;SDS011;65651;53.154;17.916;2023-02-28T15:11:16;19.50;;;10.40;;
76725;SDS011;65651;53.154;17.916;2023-02-28T15:13:47;11.70;;;5.70;;
76725;SDS011;65651;53.154;17.916;2023-02-28T15:16:19;14.90;;;9.90;;
76725;SDS011;65651;53.154;17.916;2023-02-28T15:18:50;12.00;;;5.10;;
76725;SDS011;65651;53.154;17.916;2023-02-28T15:21:23;10.30;;;5.40;;
76725;SDS011;65651;53.154;17.916;2023-02-28T15:23:55;20.00;;;9.80;;
76725;SDS011;65651;53.154;17.916;2023-02-28T15:26:34;15.50;;;6.60;;
76725;SDS011;65651;53.154;17.916;2023-02-28T15:29:13;26.40;;;9.00;;
76725;SDS011;65651;53.154;17.916;2023-02-28T15:31:45;24.80;;;8.30;;
76725;SDS011;65651;53.154;17.916;2023-02-28T15:34:19;17.40;;;7.70;;
76725;SDS011;65651;53.154;17.916;2023-02-28T15:36:56;39.20;;;14.60;;
76725;SDS011;65651;53.154;17.916;2023-02-28T15:39:24;29.70;;;10.40;;
76725;SDS011;65651;53.154;17.916;2023-02-28T15:42:12;74.50;;;28.70;;
76725;SDS011;65651;53.154;17.916;2023-02-28T15:44:45;68.30;;;22.30;;
76725;SDS011;65651;53.154;17.916;2023-02-28T15:47:17;68.70;;;21.10;;
76725;SDS011;65651;53.154;17.916;2023-02-28T15:49:49;73.10;;;26.10;;
76725;SDS011;65651;53.154;17.916;2023-02-28T15:52:24;104.10;;;34.20;;
76725;SDS011;65651;53.154;17.916;2023-02-28T15:55:08;47.10;;;16.80;;
76725;SDS011;65651;53.154;17.916;2023-02-28T15:57:45;32.50;;;11.90;;
76725;SDS011;65651;53.154;17.916;2023-02-28T16:00:18;26.80;;;12.20;;
76725;SDS011;65651;53.154;17.916;2023-02-28T16:02:51;24.80;;;10.30;;
76725;SDS011;65651;53.154;17.916;2023-02-28T16:08:15;30.90;;;14.30;;
76725;SDS011;65651;53.154;17.916;2023-02-28T16:10:43;36.00;;;16.00;;
76725;SDS011;65651;53.154;17.916;2023-02-28T16:13:11;40.70;;;18.20;;
76725;SDS011;65651;53.154;17.916;2023-02-28T16:15:42;44.80;;;19.10;;
76725;SDS011;65651;53.154;17.916;2023-02-28T16:18:11;83.00;;;29.40;;
76725;SDS011;65651;53.154;17.916;2023-02-28T16:20:39;100.50;;;34.40;;
76725;SDS011;65651;53.154;17.916;2023-02-28T16:23:08;114.80;;;37.50;;
76725;SDS011;65651;53.154;17.916;2023-02-28T16:25:39;196.70;;;57.60;;
76725;SDS011;65651;53.154;17.916;2023-02-28T16:28:21;198.60;;;56.40;;
76725;SDS011;65651;53.154;17.916;2023-02-28T16:30:56;81.40;;;24.80;;
76725;SDS011;65651;53.154;17.916;2023-02-28T16:33:24;70.40;;;21.70;;
76725;SDS011;65651;53.154;17.916;2023-02-28T16:35:51;57.60;;;20.10;;
76725;SDS011;65651;53.154;17.916;2023-02-28T16:38:19;42.90;;;14.30;;
76725;SDS011;65651;53.154;17.916;2023-02-28T16:40:46;36.50;;;12.60;;
76725;SDS011;65651;53.154;17.916;2023-02-28T16:43:18;56.40;;;19.00;;
76725;SDS011;65651;53.154;17.916;2023-02-28T16:45:49;187.20;;;57.80;;
76725;SDS011;65651;53.154;17.916;2023-02-28T16:48:25;81.60;;;27.70;;
76725;SDS011;65651;53.154;17.916;2023-02-28T16:50:52;77.20;;;26.40;;
76725;SDS011;65651;53.154;17.916;2023-02-28T16:53:20;81.70;;;25.10;;
76725;SDS011;65651;53.154;17.916;2023-02-28T16:55:48;59.20;;;20.60;;
76725;SDS011;65651;53.154;17.916;2023-02-28T16:58:17;56.50;;;18.10;;
76725;SDS011;65651;53.154;17.916;2023-02-28T17:00:48;56.20;;;17.10;;
76725;SDS011;65651;53.154;17.916;2023-02-28T17:03:21;46.90;;;15.80;;
76725;SDS011;65651;53.154;17.916;2023-02-28T17:05:51;47.00;;;15.90;;
76725;SDS011;65651;53.154;17.916;2023-02-28T17:08:18;55.30;;;16.30;;
76725;SDS011;65651;53.154;17.916;2023-02-28T17:10:46;40.90;;;14.70;;
76725;SDS011;65651;53.154;17.916;2023-02-28T17:13:13;47.10;;;14.00;;
76725;SDS011;65651;53.154;17.916;2023-02-28T17:15:41;47.00;;;15.10;;